sensor_id;sensor_type;location;lat;lon;timestamp;temperature;humidity
47857;DHT22;33618;49.972;8.242;2022-08-01T00:01:33;23.00;84.80
47857;DHT22;33618;49.972;8.242;2022-08-01T00:07:05;22.90;86.00
47857;DHT22;33618;49.972;8.242;2022-08-01T00:12:37;22.70;87.90
47857;DHT22;33618;49.972;8.242;2022-08-01T00:15:04;22.70;87.70
47857;DHT22;33618;49.972;8.242;2022-08-01T00:20:36;22.70;88.30
47857;DHT22;33618;49.972;8.242;2022-08-01T00:37:31;22.70;89.90
47857;DHT22;33618;49.972;8.242;2022-08-01T00:39:58;22.60;90.30
47857;DHT22;33618;49.972;8.242;2022-08-01T00:42:25;22.60;90.50
47857;DHT22;33618;49.972;8.242;2022-08-01T00:44:52;22.50;90.80
47857;DHT22;33618;49.972;8.242;2022-08-01T00:47:19;22.40;91.10
47857;DHT22;33618;49.972;8.242;2022-08-01T00:49:46;22.40;91.00
47857;DHT22;33618;49.972;8.242;2022-08-01T00:52:12;22.40;91.40
47857;DHT22;33618;49.972;8.242;2022-08-01T00:54:40;22.30;91.70
47857;DHT22;33618;49.972;8.242;2022-08-01T00:57:07;22.30;91.90
47857;DHT22;33618;49.972;8.242;2022-08-01T00:59:36;22.20;92.00
47857;DHT22;33618;49.972;8.242;2022-08-01T01:02:05;22.20;92.10
47857;DHT22;33618;49.972;8.242;2022-08-01T01:04:41;22.20;92.40
47857;DHT22;33618;49.972;8.242;2022-08-01T01:14:53;21.90;93.40
47857;DHT22;33618;49.972;8.242;2022-08-01T01:17:24;21.90;94.00
47857;DHT22;33618;49.972;8.242;2022-08-01T01:26:35;22.00;93.50
47857;DHT22;33618;49.972;8.242;2022-08-01T01:34:23;21.80;94.30
47857;DHT22;33618;49.972;8.242;2022-08-01T01:36:52;21.80;94.10
47857;DHT22;33618;49.972;8.242;2022-08-01T01:39:21;21.90;94.00
47857;DHT22;33618;49.972;8.242;2022-08-01T01:41:51;21.80;94.20
47857;DHT22;33618;49.972;8.242;2022-08-01T01:44:20;21.70;94.70
47857;DHT22;33618;49.972;8.242;2022-08-01T01:46:47;21.60;95.20
47857;DHT22;33618;49.972;8.242;2022-08-01T01:49:15;21.50;95.40
47857;DHT22;33618;49.972;8.242;2022-08-01T01:51:43;21.40;95.50
47857;DHT22;33618;49.972;8.242;2022-08-01T01:54:30;21.40;95.70
47857;DHT22;33618;49.972;8.242;2022-08-01T01:56:58;21.40;95.80
47857;DHT22;33618;49.972;8.242;2022-08-01T01:59:27;21.20;96.00
47857;DHT22;33618;49.972;8.242;2022-08-01T02:01:56;21.20;96.30
47857;DHT22;33618;49.972;8.242;2022-08-01T02:04:32;21.10;96.50
47857;DHT22;33618;49.972;8.242;2022-08-01T02:07:01;21.00;96.70
47857;DHT22;33618;49.972;8.242;2022-08-01T02:09:29;20.90;96.90
47857;DHT22;33618;49.972;8.242;2022-08-01T02:11:57;20.90;97.20
47857;DHT22;33618;49.972;8.242;2022-08-01T02:14:34;20.80;97.40
47857;DHT22;33618;49.972;8.242;2022-08-01T02:17:06;20.80;97.50
47857;DHT22;33618;49.972;8.242;2022-08-01T02:22:42;20.80;97.70
47857;DHT22;33618;49.972;8.242;2022-08-01T02:25:22;20.80;97.80
47857;DHT22;33618;49.972;8.242;2022-08-01T02:30:17;20.70;97.90
47857;DHT22;33618;49.972;8.242;2022-08-01T02:32:45;20.70;97.90
47857;DHT22;33618;49.972;8.242;2022-08-01T02:35:13;20.70;98.00
47857;DHT22;33618;49.972;8.242;2022-08-01T02:37:44;20.80;98.00
47857;DHT22;33618;49.972;8.242;2022-08-01T02:40:12;20.80;98.00
47857;DHT22;33618;49.972;8.242;2022-08-01T02:42:41;20.70;98.10
47857;DHT22;33618;49.972;8.242;2022-08-01T02:45:10;20.70;98.10
47857;DHT22;33618;49.972;8.242;2022-08-01T02:47:39;20.70;98.20
47857;DHT22;33618;49.972;8.242;2022-08-01T02:50:08;20.60;98.50
47857;DHT22;33618;49.972;8.242;2022-08-01T02:52:37;20.60;98.70
47857;DHT22;33618;49.972;8.242;2022-08-01T02:55:05;20.50;98.60
47857;DHT22;33618;49.972;8.242;2022-08-01T02:57:33;20.50;98.60
47857;DHT22;33618;49.972;8.242;2022-08-01T03:00:17;20.50;98.70
47857;DHT22;33618;49.972;8.242;2022-08-01T03:02:44;20.50;98.80
47857;DHT22;33618;49.972;8.242;2022-08-01T03:05:14;20.60;98.50
47857;DHT22;33618;49.972;8.242;2022-08-01T03:07:46;20.50;98.80
47857;DHT22;33618;49.972;8.242;2022-08-01T03:10:15;20.40;99.10
47857;DHT22;33618;49.972;8.242;2022-08-01T03:12:43;20.30;99.10
47857;DHT22;33618;49.972;8.242;2022-08-01T03:15:13;20.30;99.30
47857;DHT22;33618;49.972;8.242;2022-08-01T03:17:41;20.30;99.50
47857;DHT22;33618;49.972;8.242;2022-08-01T03:25:44;21.50;97.50
47857;DHT22;33618;49.972;8.242;2022-08-01T03:28:12;21.30;97.70
47857;DHT22;33618;49.972;8.242;2022-08-01T03:30:40;21.70;96.70
47857;DHT22;33618;49.972;8.242;2022-08-01T03:33:08;21.80;96.50
47857;DHT22;33618;49.972;8.242;2022-08-01T03:35:46;21.80;96.40
47857;DHT22;33618;49.972;8.242;2022-08-01T03:38:17;21.90;96.00
47857;DHT22;33618;49.972;8.242;2022-08-01T03:40:53;21.60;97.20
47857;DHT22;33618;49.972;8.242;2022-08-01T03:43:23;21.40;97.50
47857;DHT22;33618;49.972;8.242;2022-08-01T03:45:53;21.10;97.90
47857;DHT22;33618;49.972;8.242;2022-08-01T03:48:22;20.90;98.40
47857;DHT22;33618;49.972;8.242;2022-08-01T03:50:54;20.70;99.10
47857;DHT22;33618;49.972;8.242;2022-08-01T03:53:48;20.50;99.00
47857;DHT22;33618;49.972;8.242;2022-08-01T03:56:20;20.50;99.30
47857;DHT22;33618;49.972;8.242;2022-08-01T03:58:48;20.40;99.90
47857;DHT22;33618;49.972;8.242;2022-08-01T04:01:16;20.30;99.80
47857;DHT22;33618;49.972;8.242;2022-08-01T04:04:21;20.20;99.90
47857;DHT22;33618;49.972;8.242;2022-08-01T04:06:48;20.00;99.90
47857;DHT22;33618;49.972;8.242;2022-08-01T04:09:25;20.00;99.90
47857;DHT22;33618;49.972;8.242;2022-08-01T04:11:52;20.00;99.90
47857;DHT22;33618;49.972;8.242;2022-08-01T04:14:19;20.00;99.90
47857;DHT22;33618;49.972;8.242;2022-08-01T04:17:05;19.90;99.90
47857;DHT22;33618;49.972;8.242;2022-08-01T04:22:39;19.90;99.90
47857;DHT22;33618;49.972;8.242;2022-08-01T04:25:11;19.90;99.90
47857;DHT22;33618;49.972;8.242;2022-08-01T04:27:45;19.90;99.90
47857;DHT22;33618;49.972;8.242;2022-08-01T04:30:19;19.90;99.90
47857;DHT22;33618;49.972;8.242;2022-08-01T04:32:47;19.80;99.90
47857;DHT22;33618;49.972;8.242;2022-08-01T04:35:16;19.90;99.90
47857;DHT22;33618;49.972;8.242;2022-08-01T04:38:10;19.80;99.90
47857;DHT22;33618;49.972;8.242;2022-08-01T04:40:37;19.80;99.90
47857;DHT22;33618;49.972;8.242;2022-08-01T04:43:04;19.80;99.90
47857;DHT22;33618;49.972;8.242;2022-08-01T04:45:32;19.80;99.90
47857;DHT22;33618;49.972;8.242;2022-08-01T04:48:01;19.90;99.90
47857;DHT22;33618;49.972;8.242;2022-08-01T04:50:35;20.00;99.90
47857;DHT22;33618;49.972;8.242;2022-08-01T04:53:03;20.00;99.90
47857;DHT22;33618;49.972;8.242;2022-08-01T04:55:36;20.00;99.90
47857;DHT22;33618;49.972;8.242;2022-08-01T04:58:03;19.90;99.90
47857;DHT22;33618;49.972;8.242;2022-08-01T05:00:30;19.90;99.90
47857;DHT22;33618;49.972;8.242;2022-08-01T05:02:59;19.90;99.90
47857;DHT22;33618;49.972;8.242;2022-08-01T05:05:25;19.90;99.90
47857;DHT22;33618;49.972;8.242;2022-08-01T05:07:52;19.90;99.90
47857;DHT22;33618;49.972;8.242;2022-08-01T05:10:19;20.00;99.90
47857;DHT22;33618;49.972;8.242;2022-08-01T05:12:46;20.00;99.90
47857;DHT22;33618;49.972;8.242;2022-08-01T05:15:13;20.00;99.90
47857;DHT22;33618;49.972;8.242;2022-08-01T05:17:41;20.00;99.90
47857;DHT22;33618;49.972;8.242;2022-08-01T05:26:57;20.20;99.90
47857;DHT22;33618;49.972;8.242;2022-08-01T05:29:26;20.20;99.90
47857;DHT22;33618;49.972;8.242;2022-08-01T05:31:53;20.20;99.90
47857;DHT22;33618;49.972;8.242;2022-08-01T05:34:20;20.30;99.90
47857;DHT22;33618;49.972;8.242;2022-08-01T05:36:47;20.40;99.90
47857;DHT22;33618;49.972;8.242;2022-08-01T05:39:14;20.50;99.90
47857;DHT22;33618;49.972;8.242;2022-08-01T05:41:41;20.60;99.90
47857;DHT22;33618;49.972;8.242;2022-08-01T05:44:08;20.80;99.70
47857;DHT22;33618;49.972;8.242;2022-08-01T05:46:35;20.90;99.70
47857;DHT22;33618;49.972;8.242;2022-08-01T05:49:03;21.00;99.30
47857;DHT22;33618;49.972;8.242;2022-08-01T05:51:31;21.10;99.10
47857;DHT22;33618;49.972;8.242;2022-08-01T05:53:58;21.10;99.00
47857;DHT22;33618;49.972;8.242;2022-08-01T05:56:25;21.10;99.00
47857;DHT22;33618;49.972;8.242;2022-08-01T05:58:57;21.00;99.10
47857;DHT22;33618;49.972;8.242;2022-08-01T06:01:28;21.00;99.10
47857;DHT22;33618;49.972;8.242;2022-08-01T06:03:55;21.00;99.30
47857;DHT22;33618;49.972;8.242;2022-08-01T06:06:28;20.90;99.20
47857;DHT22;33618;49.972;8.242;2022-08-01T06:08:55;20.90;99.70
47857;DHT22;33618;49.972;8.242;2022-08-01T06:11:22;20.90;99.40
47857;DHT22;33618;49.972;8.242;2022-08-01T06:13:49;20.90;99.30
47857;DHT22;33618;49.972;8.242;2022-08-01T06:16:16;20.90;99.30
47857;DHT22;33618;49.972;8.242;2022-08-01T06:18:45;20.90;99.50
47857;DHT22;33618;49.972;8.242;2022-08-01T06:24:17;21.00;99.30
47857;DHT22;33618;49.972;8.242;2022-08-01T06:26:43;21.10;99.50
47857;DHT22;33618;49.972;8.242;2022-08-01T06:29:11;21.30;99.00
47857;DHT22;33618;49.972;8.242;2022-08-01T06:31:41;21.40;99.00
47857;DHT22;33618;49.972;8.242;2022-08-01T06:34:08;21.40;98.60
47857;DHT22;33618;49.972;8.242;2022-08-01T06:36:35;21.50;99.00
47857;DHT22;33618;49.972;8.242;2022-08-01T06:39:02;21.60;98.50
47857;DHT22;33618;49.972;8.242;2022-08-01T06:41:28;21.70;98.70
47857;DHT22;33618;49.972;8.242;2022-08-01T06:44:00;21.80;98.10
47857;DHT22;33618;49.972;8.242;2022-08-01T06:46:29;21.90;98.00
47857;DHT22;33618;49.972;8.242;2022-08-01T06:48:58;21.80;97.90
47857;DHT22;33618;49.972;8.242;2022-08-01T06:51:26;21.90;98.10
47857;DHT22;33618;49.972;8.242;2022-08-01T06:53:53;22.00;98.00
47857;DHT22;33618;49.972;8.242;2022-08-01T06:56:21;21.90;97.60
47857;DHT22;33618;49.972;8.242;2022-08-01T06:58:48;21.90;97.70
47857;DHT22;33618;49.972;8.242;2022-08-01T07:01:32;21.80;97.70
47857;DHT22;33618;49.972;8.242;2022-08-01T07:08:11;22.20;97.80
47857;DHT22;33618;49.972;8.242;2022-08-01T07:10:39;22.30;97.00
47857;DHT22;33618;49.972;8.242;2022-08-01T07:14:26;22.60;96.90
47857;DHT22;33618;49.972;8.242;2022-08-01T07:17:42;22.90;96.10
47857;DHT22;33618;49.972;8.242;2022-08-01T07:20:56;23.10;96.40
47857;DHT22;33618;49.972;8.242;2022-08-01T07:31:24;23.40;95.40
47857;DHT22;33618;49.972;8.242;2022-08-01T07:34:09;23.40;95.30
47857;DHT22;33618;49.972;8.242;2022-08-01T07:37:18;23.30;95.30
47857;DHT22;33618;49.972;8.242;2022-08-01T07:40:15;23.20;95.70
47857;DHT22;33618;49.972;8.242;2022-08-01T07:42:53;23.40;95.50
47857;DHT22;33618;49.972;8.242;2022-08-01T07:45:21;23.40;95.30
47857;DHT22;33618;49.972;8.242;2022-08-01T07:47:56;23.40;95.60
47857;DHT22;33618;49.972;8.242;2022-08-01T07:50:27;23.20;95.70
47857;DHT22;33618;49.972;8.242;2022-08-01T07:53:03;23.30;95.20
47857;DHT22;33618;49.972;8.242;2022-08-01T07:56:02;23.30;95.30
47857;DHT22;33618;49.972;8.242;2022-08-01T07:59:35;23.50;95.00
47857;DHT22;33618;49.972;8.242;2022-08-01T08:02:30;23.70;94.80
47857;DHT22;33618;49.972;8.242;2022-08-01T08:05:21;23.90;94.50
47857;DHT22;33618;49.972;8.242;2022-08-01T08:08:08;24.00;94.40
47857;DHT22;33618;49.972;8.242;2022-08-01T08:10:37;24.10;94.40
47857;DHT22;33618;49.972;8.242;2022-08-01T08:13:07;24.10;93.80
47857;DHT22;33618;49.972;8.242;2022-08-01T08:15:34;24.10;93.90
47857;DHT22;33618;49.972;8.242;2022-08-01T08:18:04;24.30;93.70
47857;DHT22;33618;49.972;8.242;2022-08-01T08:20:31;24.40;94.10
47857;DHT22;33618;49.972;8.242;2022-08-01T08:22:58;24.60;93.60
47857;DHT22;33618;49.972;8.242;2022-08-01T08:28:30;24.60;93.60
47857;DHT22;33618;49.972;8.242;2022-08-01T08:30:56;24.60;92.90
47857;DHT22;33618;49.972;8.242;2022-08-01T08:33:24;24.80;92.90
47857;DHT22;33618;49.972;8.242;2022-08-01T08:35:51;24.60;93.10
47857;DHT22;33618;49.972;8.242;2022-08-01T08:38:19;24.50;93.00
47857;DHT22;33618;49.972;8.242;2022-08-01T08:40:54;24.60;93.50
47857;DHT22;33618;49.972;8.242;2022-08-01T08:46:28;24.70;92.90
47857;DHT22;33618;49.972;8.242;2022-08-01T08:49:08;24.80;92.50
47857;DHT22;33618;49.972;8.242;2022-08-01T08:51:39;24.80;92.70
47857;DHT22;33618;49.972;8.242;2022-08-01T08:54:08;24.80;92.40
47857;DHT22;33618;49.972;8.242;2022-08-01T08:56:46;24.90;92.90
47857;DHT22;33618;49.972;8.242;2022-08-01T08:59:13;25.10;92.20
47857;DHT22;33618;49.972;8.242;2022-08-01T09:02:07;25.10;92.00
47857;DHT22;33618;49.972;8.242;2022-08-01T09:05:02;25.10;92.20
47857;DHT22;33618;49.972;8.242;2022-08-01T09:11:55;25.20;91.90
47857;DHT22;33618;49.972;8.242;2022-08-01T09:14:24;25.30;91.70
47857;DHT22;33618;49.972;8.242;2022-08-01T09:17:19;25.30;92.00
47857;DHT22;33618;49.972;8.242;2022-08-01T09:19:55;25.30;91.80
47857;DHT22;33618;49.972;8.242;2022-08-01T09:22:23;25.20;91.90
47857;DHT22;33618;49.972;8.242;2022-08-01T09:25:07;25.00;91.80
47857;DHT22;33618;49.972;8.242;2022-08-01T09:30:52;24.70;92.60
47857;DHT22;33618;49.972;8.242;2022-08-01T09:33:46;24.90;92.40
47857;DHT22;33618;49.972;8.242;2022-08-01T09:36:20;25.40;92.10
47857;DHT22;33618;49.972;8.242;2022-08-01T09:38:48;25.80;91.20
47857;DHT22;33618;49.972;8.242;2022-08-01T09:41:17;26.50;91.30
47857;DHT22;33618;49.972;8.242;2022-08-01T09:43:54;27.30;90.00
47857;DHT22;33618;49.972;8.242;2022-08-01T09:46:21;27.80;86.30
47857;DHT22;33618;49.972;8.242;2022-08-01T09:51:41;27.20;86.70
47857;DHT22;33618;49.972;8.242;2022-08-01T09:54:33;27.50;85.80
47857;DHT22;33618;49.972;8.242;2022-08-01T09:57:36;27.90;85.50
47857;DHT22;33618;49.972;8.242;2022-08-01T09:59:57;28.60;85.50
47857;DHT22;33618;49.972;8.242;2022-08-01T10:02:33;29.10;83.20
47857;DHT22;33618;49.972;8.242;2022-08-01T10:05:01;29.30;81.60
47857;DHT22;33618;49.972;8.242;2022-08-01T10:07:35;29.00;80.40
47857;DHT22;33618;49.972;8.242;2022-08-01T10:10:15;29.10;80.90
47857;DHT22;33618;49.972;8.242;2022-08-01T10:12:45;29.30;79.20
47857;DHT22;33618;49.972;8.242;2022-08-01T10:15:19;28.50;79.40
47857;DHT22;33618;49.972;8.242;2022-08-01T10:18:04;28.60;79.90
47857;DHT22;33618;49.972;8.242;2022-08-01T10:20:41;28.50;79.50
47857;DHT22;33618;49.972;8.242;2022-08-01T10:23:09;28.30;79.00
47857;DHT22;33618;49.972;8.242;2022-08-01T10:25:37;28.50;76.50
47857;DHT22;33618;49.972;8.242;2022-08-01T10:31:41;29.60;75.70
47857;DHT22;33618;49.972;8.242;2022-08-01T10:34:16;30.60;75.40
47857;DHT22;33618;49.972;8.242;2022-08-01T10:36:49;31.60;72.70
47857;DHT22;33618;49.972;8.242;2022-08-01T10:39:16;31.10;70.90
47857;DHT22;33618;49.972;8.242;2022-08-01T10:41:56;30.90;70.60
47857;DHT22;33618;49.972;8.242;2022-08-01T10:44:36;30.90;72.20
47857;DHT22;33618;49.972;8.242;2022-08-01T10:47:11;31.50;71.10
47857;DHT22;33618;49.972;8.242;2022-08-01T10:49:50;32.10;70.10
47857;DHT22;33618;49.972;8.242;2022-08-01T10:52:17;32.40;68.70
47857;DHT22;33618;49.972;8.242;2022-08-01T10:54:45;32.50;67.30
47857;DHT22;33618;49.972;8.242;2022-08-01T10:57:18;32.50;66.60
47857;DHT22;33618;49.972;8.242;2022-08-01T10:59:59;32.60;66.70
47857;DHT22;33618;49.972;8.242;2022-08-01T11:02:28;32.40;65.60
47857;DHT22;33618;49.972;8.242;2022-08-01T11:05:09;31.30;67.60
47857;DHT22;33618;49.972;8.242;2022-08-01T11:07:53;32.10;67.10
47857;DHT22;33618;49.972;8.242;2022-08-01T11:12:49;31.50;67.20
47857;DHT22;33618;49.972;8.242;2022-08-01T11:15:17;31.50;67.40
47857;DHT22;33618;49.972;8.242;2022-08-01T11:17:56;32.00;66.70
47857;DHT22;33618;49.972;8.242;2022-08-01T11:28:31;31.10;66.60
47857;DHT22;33618;49.972;8.242;2022-08-01T11:40:36;30.10;67.70
47857;DHT22;33618;49.972;8.242;2022-08-01T11:45:50;30.30;66.70
47857;DHT22;33618;49.972;8.242;2022-08-01T11:48:19;31.00;67.50
47857;DHT22;33618;49.972;8.242;2022-08-01T11:50:55;31.30;68.00
47857;DHT22;33618;49.972;8.242;2022-08-01T11:53:22;31.50;66.20
47857;DHT22;33618;49.972;8.242;2022-08-01T11:55:53;31.50;66.70
47857;DHT22;33618;49.972;8.242;2022-08-01T11:58:23;31.90;65.70
47857;DHT22;33618;49.972;8.242;2022-08-01T12:00:55;31.50;66.40
47857;DHT22;33618;49.972;8.242;2022-08-01T12:03:30;31.80;65.90
47857;DHT22;33618;49.972;8.242;2022-08-01T12:06:00;32.30;65.60
47857;DHT22;33618;49.972;8.242;2022-08-01T12:08:35;32.60;65.80
47857;DHT22;33618;49.972;8.242;2022-08-01T12:11:03;33.20;64.90
47857;DHT22;33618;49.972;8.242;2022-08-01T12:13:42;33.20;63.80
47857;DHT22;33618;49.972;8.242;2022-08-01T12:16:11;33.20;64.20
47857;DHT22;33618;49.972;8.242;2022-08-01T12:18:42;33.40;63.60
47857;DHT22;33618;49.972;8.242;2022-08-01T12:21:10;33.30;63.70
47857;DHT22;33618;49.972;8.242;2022-08-01T12:23:41;33.30;63.30
47857;DHT22;33618;49.972;8.242;2022-08-01T12:26:07;33.30;64.00
47857;DHT22;33618;49.972;8.242;2022-08-01T12:28:54;33.00;62.10
47857;DHT22;33618;49.972;8.242;2022-08-01T12:31:32;32.10;63.90
47857;DHT22;33618;49.972;8.242;2022-08-01T12:34:24;31.40;64.20
47857;DHT22;33618;49.972;8.242;2022-08-01T12:36:48;31.10;63.30
47857;DHT22;33618;49.972;8.242;2022-08-01T12:39:15;30.40;63.90
47857;DHT22;33618;49.972;8.242;2022-08-01T12:41:42;30.10;64.60
47857;DHT22;33618;49.972;8.242;2022-08-01T12:44:16;30.00;65.20
47857;DHT22;33618;49.972;8.242;2022-08-01T12:46:43;29.80;65.20
47857;DHT22;33618;49.972;8.242;2022-08-01T12:49:10;29.80;65.20
47857;DHT22;33618;49.972;8.242;2022-08-01T12:51:37;29.60;64.80
47857;DHT22;33618;49.972;8.242;2022-08-01T12:54:04;29.80;65.90
47857;DHT22;33618;49.972;8.242;2022-08-01T12:56:37;30.00;65.90
47857;DHT22;33618;49.972;8.242;2022-08-01T13:02:10;30.10;65.70
47857;DHT22;33618;49.972;8.242;2022-08-01T13:04:58;30.10;66.50
47857;DHT22;33618;49.972;8.242;2022-08-01T13:07:49;29.90;65.40
47857;DHT22;33618;49.972;8.242;2022-08-01T13:10:26;30.10;65.70
47857;DHT22;33618;49.972;8.242;2022-08-01T13:12:54;30.00;66.30
47857;DHT22;33618;49.972;8.242;2022-08-01T13:15:28;29.90;66.00
47857;DHT22;33618;49.972;8.242;2022-08-01T13:17:59;30.00;66.50
47857;DHT22;33618;49.972;8.242;2022-08-01T13:23:32;30.20;66.20
47857;DHT22;33618;49.972;8.242;2022-08-01T13:26:12;30.20;67.40
47857;DHT22;33618;49.972;8.242;2022-08-01T13:28:39;30.10;66.30
47857;DHT22;33618;49.972;8.242;2022-08-01T13:31:09;30.20;67.30
47857;DHT22;33618;49.972;8.242;2022-08-01T13:36:07;29.80;67.20
47857;DHT22;33618;49.972;8.242;2022-08-01T13:38:34;29.80;66.40
47857;DHT22;33618;49.972;8.242;2022-08-01T13:41:20;29.50;66.90
47857;DHT22;33618;49.972;8.242;2022-08-01T13:43:48;29.20;66.90
47857;DHT22;33618;49.972;8.242;2022-08-01T13:50:19;29.50;67.00
47857;DHT22;33618;49.972;8.242;2022-08-01T13:52:46;29.90;67.70
47857;DHT22;33618;49.972;8.242;2022-08-01T13:55:13;30.20;66.40
47857;DHT22;33618;49.972;8.242;2022-08-01T13:57:39;30.50;66.10
47857;DHT22;33618;49.972;8.242;2022-08-01T14:00:07;30.20;65.00
47857;DHT22;33618;49.972;8.242;2022-08-01T14:02:34;30.20;65.60
47857;DHT22;33618;49.972;8.242;2022-08-01T14:05:01;30.30;65.20
47857;DHT22;33618;49.972;8.242;2022-08-01T14:07:28;30.00;65.60
47857;DHT22;33618;49.972;8.242;2022-08-01T14:09:56;30.00;65.70
47857;DHT22;33618;49.972;8.242;2022-08-01T14:12:43;30.10;65.40
47857;DHT22;33618;49.972;8.242;2022-08-01T14:15:11;29.90;65.80
47857;DHT22;33618;49.972;8.242;2022-08-01T14:17:39;30.00;65.80
47857;DHT22;33618;49.972;8.242;2022-08-01T14:20:13;29.80;65.70
47857;DHT22;33618;49.972;8.242;2022-08-01T14:22:40;29.40;66.20
47857;DHT22;33618;49.972;8.242;2022-08-01T14:25:07;29.20;66.20
47857;DHT22;33618;49.972;8.242;2022-08-01T14:27:34;28.90;66.20
47857;DHT22;33618;49.972;8.242;2022-08-01T14:30:03;28.80;66.50
47857;DHT22;33618;49.972;8.242;2022-08-01T14:32:30;28.90;66.60
47857;DHT22;33618;49.972;8.242;2022-08-01T14:34:57;29.00;66.40
47857;DHT22;33618;49.972;8.242;2022-08-01T14:37:24;28.90;66.70
47857;DHT22;33618;49.972;8.242;2022-08-01T14:39:55;28.80;66.90
47857;DHT22;33618;49.972;8.242;2022-08-01T14:42:23;28.80;67.00
47857;DHT22;33618;49.972;8.242;2022-08-01T14:48:38;28.90;67.10
47857;DHT22;33618;49.972;8.242;2022-08-01T14:51:05;28.30;67.70
47857;DHT22;33618;49.972;8.242;2022-08-01T14:53:34;28.30;68.60
47857;DHT22;33618;49.972;8.242;2022-08-01T14:56:04;28.40;67.70
47857;DHT22;33618;49.972;8.242;2022-08-01T14:58:31;28.40;68.00
47857;DHT22;33618;49.972;8.242;2022-08-01T15:00:59;28.30;68.30
47857;DHT22;33618;49.972;8.242;2022-08-01T15:03:27;28.00;68.80
47857;DHT22;33618;49.972;8.242;2022-08-01T15:05:54;28.00;68.70
47857;DHT22;33618;49.972;8.242;2022-08-01T15:08:21;28.00;68.90
47857;DHT22;33618;49.972;8.242;2022-08-01T15:10:48;27.80;69.10
47857;DHT22;33618;49.972;8.242;2022-08-01T15:13:15;27.70;69.10
47857;DHT22;33618;49.972;8.242;2022-08-01T15:15:41;27.90;69.40
47857;DHT22;33618;49.972;8.242;2022-08-01T15:18:08;28.00;68.80
47857;DHT22;33618;49.972;8.242;2022-08-01T15:20:35;28.10;69.00
47857;DHT22;33618;49.972;8.242;2022-08-01T15:23:02;28.20;68.60
47857;DHT22;33618;49.972;8.242;2022-08-01T15:25:29;28.20;68.50
47857;DHT22;33618;49.972;8.242;2022-08-01T15:28:08;28.20;69.00
47857;DHT22;33618;49.972;8.242;2022-08-01T15:30:35;28.30;69.20
47857;DHT22;33618;49.972;8.242;2022-08-01T15:33:05;28.40;68.30
47857;DHT22;33618;49.972;8.242;2022-08-01T15:35:33;28.40;70.10
47857;DHT22;33618;49.972;8.242;2022-08-01T15:38:00;28.40;68.90
47857;DHT22;33618;49.972;8.242;2022-08-01T15:40:27;28.30;69.00
47857;DHT22;33618;49.972;8.242;2022-08-01T15:42:55;28.50;69.10
47857;DHT22;33618;49.972;8.242;2022-08-01T15:49:10;28.50;68.70
47857;DHT22;33618;49.972;8.242;2022-08-01T15:51:37;28.40;68.80
47857;DHT22;33618;49.972;8.242;2022-08-01T15:54:04;28.20;68.70
47857;DHT22;33618;49.972;8.242;2022-08-01T15:56:39;28.10;68.80
47857;DHT22;33618;49.972;8.242;2022-08-01T15:59:06;28.10;69.10
47857;DHT22;33618;49.972;8.242;2022-08-01T16:01:33;28.10;68.90
47857;DHT22;33618;49.972;8.242;2022-08-01T16:04:00;28.10;68.70
47857;DHT22;33618;49.972;8.242;2022-08-01T16:06:27;28.10;69.40
47857;DHT22;33618;49.972;8.242;2022-08-01T16:08:54;28.10;69.30
47857;DHT22;33618;49.972;8.242;2022-08-01T16:11:22;28.10;69.10
47857;DHT22;33618;49.972;8.242;2022-08-01T16:13:53;28.10;68.70
47857;DHT22;33618;49.972;8.242;2022-08-01T16:16:20;27.80;68.40
47857;DHT22;33618;49.972;8.242;2022-08-01T16:18:47;27.70;68.40
47857;DHT22;33618;49.972;8.242;2022-08-01T16:21:19;27.70;68.50
47857;DHT22;33618;49.972;8.242;2022-08-01T16:23:46;27.70;68.70
47857;DHT22;33618;49.972;8.242;2022-08-01T16:26:13;27.70;68.90
47857;DHT22;33618;49.972;8.242;2022-08-01T16:28:53;27.60;68.70
47857;DHT22;33618;49.972;8.242;2022-08-01T16:31:20;27.50;68.60
47857;DHT22;33618;49.972;8.242;2022-08-01T16:34:07;27.60;69.00
47857;DHT22;33618;49.972;8.242;2022-08-01T16:36:38;27.50;68.90
47857;DHT22;33618;49.972;8.242;2022-08-01T16:39:05;27.50;68.90
47857;DHT22;33618;49.972;8.242;2022-08-01T16:41:33;27.50;69.00
47857;DHT22;33618;49.972;8.242;2022-08-01T16:44:11;27.40;68.90
47857;DHT22;33618;49.972;8.242;2022-08-01T16:53:16;27.40;69.30
47857;DHT22;33618;49.972;8.242;2022-08-01T16:55:43;27.40;69.30
47857;DHT22;33618;49.972;8.242;2022-08-01T16:58:17;27.40;69.40
47857;DHT22;33618;49.972;8.242;2022-08-01T17:00:44;27.40;69.00
47857;DHT22;33618;49.972;8.242;2022-08-01T17:03:22;27.40;68.80
47857;DHT22;33618;49.972;8.242;2022-08-01T17:06:11;27.60;68.60
47857;DHT22;33618;49.972;8.242;2022-08-01T17:08:38;27.90;68.30
47857;DHT22;33618;49.972;8.242;2022-08-01T17:11:12;28.20;68.20
47857;DHT22;33618;49.972;8.242;2022-08-01T17:13:39;28.50;68.00
47857;DHT22;33618;49.972;8.242;2022-08-01T17:16:07;28.60;67.50
47857;DHT22;33618;49.972;8.242;2022-08-01T17:18:34;28.60;67.50
47857;DHT22;33618;49.972;8.242;2022-08-01T17:21:00;28.50;67.70
47857;DHT22;33618;49.972;8.242;2022-08-01T17:23:27;28.60;67.60
47857;DHT22;33618;49.972;8.242;2022-08-01T17:25:54;28.80;67.50
47857;DHT22;33618;49.972;8.242;2022-08-01T17:28:21;28.80;67.10
47857;DHT22;33618;49.972;8.242;2022-08-01T17:30:48;28.80;67.20
47857;DHT22;33618;49.972;8.242;2022-08-01T17:33:15;28.60;67.80
47857;DHT22;33618;49.972;8.242;2022-08-01T17:35:42;28.60;67.50
47857;DHT22;33618;49.972;8.242;2022-08-01T17:38:09;28.60;68.40
47857;DHT22;33618;49.972;8.242;2022-08-01T17:40:36;28.50;67.80
47857;DHT22;33618;49.972;8.242;2022-08-01T17:45:59;28.00;68.30
47857;DHT22;33618;49.972;8.242;2022-08-01T17:55:19;27.90;68.70
47857;DHT22;33618;49.972;8.242;2022-08-01T17:58:08;27.80;69.00
47857;DHT22;33618;49.972;8.242;2022-08-01T18:00:35;27.90;69.10
47857;DHT22;33618;49.972;8.242;2022-08-01T18:03:04;27.90;68.80
47857;DHT22;33618;49.972;8.242;2022-08-01T18:05:33;28.00;68.70
47857;DHT22;33618;49.972;8.242;2022-08-01T18:08:04;27.90;69.00
47857;DHT22;33618;49.972;8.242;2022-08-01T18:10:32;27.80;68.70
47857;DHT22;33618;49.972;8.242;2022-08-01T18:12:59;27.90;68.60
47857;DHT22;33618;49.972;8.242;2022-08-01T18:15:27;27.90;68.80
47857;DHT22;33618;49.972;8.242;2022-08-01T18:17:58;27.80;68.80
47857;DHT22;33618;49.972;8.242;2022-08-01T18:20:25;27.60;68.70
47857;DHT22;33618;49.972;8.242;2022-08-01T18:22:52;27.60;69.00
47857;DHT22;33618;49.972;8.242;2022-08-01T18:25:18;27.40;69.10
47857;DHT22;33618;49.972;8.242;2022-08-01T18:27:45;27.30;69.30
47857;DHT22;33618;49.972;8.242;2022-08-01T18:30:32;27.20;69.30
47857;DHT22;33618;49.972;8.242;2022-08-01T18:32:59;27.10;69.60
47857;DHT22;33618;49.972;8.242;2022-08-01T18:35:25;26.90;69.60
47857;DHT22;33618;49.972;8.242;2022-08-01T18:38:12;26.70;70.10